KDMN

Deming Municipal Airport

Deming, New Mexico, USA
KDMN 170545Z 1706/1806 VRB05KT P6SM FEW250 FM171900 26010KT P6SM SCT250
Issued Valid From Valid To
Nov-17 @ 05:45 UTC
(3 hours ago)
Nov-17 @ 06:00 UTC
(3 hours ago)
Nov-18 @ 06:00 UTC
(in 21 hours)
Nov-17 @ 06:00 to Nov-17 @ 19:00
KDMN 170545Z 1706/1806 VRB05KT P6SM FEW250
Wind Visibility Clouds
Variable at 5 knots Greater than 6 miles
  • Few at 25,000' AGL
From Nov-17 @ 19:00 to Nov-18 @ 06:00
FM171900 26010KT P6SM SCT250
Wind Visibility Clouds
260° at 10 knots Greater than 6 miles
  • Scattered at 25,000' AGL
KDMN 170545Z 1706/1806 VRB05KT P6SM FEW250 FM171900 26010KT P6SM SCT250
Issued Nov-17 @ 05:45 UTC
(3 hours ago)
Valid From Nov-17 @ 06:00 UTC
(3 hours ago)
Valid To Nov-18 @ 06:00 UTC
(in 21 hours)
Nov-17 @ 06:00 - Nov-17 @ 19:00
Wind Visibility
Variable at 5 knots Greater than 6 miles
Clouds
  • Few at 25,000' AGL
From Nov-17 @ 19:00 - Nov-18 @ 06:00
Wind Visibility
260° at 10 knots Greater than 6 miles
Clouds
  • Scattered at 25,000' AGL